Aviation Digital Data Service (ADDS)

Output produced by METARs form (1852 UTC 18 June 2019)
found at http://www.aviationweather.gov/metar/data/
 
Forecast for: KISN (WILLISTON , ND, US)
Text: KISN 181722Z 1818/1918 14007KT P6SM FEW050 SCT150
Forecast period: 1800 UTC 18 June 2019 to 0700 UTC 19 June 2019
Forecast type: FROM: standard forecast or significant change
Winds: from the SE (140 degrees) at 8 MPH (7 knots; 3.6 m/s)
Visibility: 6 or more miles 10+ km)
Ceiling: at least 12,000 feet AGL
Clouds: few clouds at 5000 feet AGL
scattered clouds at 15000 feet AGL
Weather: no significant weather forecast for this period
Text: FM190700 13006KT P6SM VCSH SCT060 BKN150
Forecast period: 0700 to 1200 UTC 19 June 2019
Forecast type: FROM: standard forecast or significant change
Winds: from the SE (130 degrees) at 7 MPH (6 knots; 3.1 m/s)
Visibility: 6 or more miles 10+ km)
Ceiling: 15000 feet AGL
Clouds: scattered clouds at 6000 feet AGL
broken clouds at 15000 feet AGL
Weather: VCSH  (showers in vicinity)
Text: FM191200 13005KT 6SM -SHRA BR BKN015 OVC025
Forecast period: 1200 to 1800 UTC 19 June 2019
Forecast type: FROM: standard forecast or significant change
Winds: from the SE (130 degrees) at 6 MPH (5 knots; 2.6 m/s)
Visibility: 6 miles (10 km)
Ceiling: 1500 feet AGL
Clouds: broken clouds at 1500 feet AGL
overcast cloud deck at 2500 feet AGL
Weather: -SHRA BR  (light rain showers, mist)